createdAt,value
2022-12-06T00:01:25.808Z,100638.73
2022-12-06T00:03:58.996Z,100638.70
2022-12-06T00:06:31.897Z,100639.19
2022-12-06T00:09:03.794Z,100639.48
2022-12-06T00:11:37.338Z,100638.90
2022-12-06T00:14:09.659Z,100633.69
2022-12-06T00:16:41.348Z,100631.21
2022-12-06T00:19:16.509Z,100628.31
2022-12-06T00:21:48.282Z,100628.96
2022-12-06T00:24:21.268Z,100626.23
2022-12-06T00:26:53.171Z,100624.86
2022-12-06T00:29:25.500Z,100626.19
2022-12-06T00:31:56.902Z,100619.88
2022-12-06T00:34:28.568Z,100620.34
2022-12-06T00:36:59.961Z,100614.81
2022-12-06T00:39:31.515Z,100620.48
2022-12-06T00:42:02.794Z,100621.89
2022-12-06T00:44:34.348Z,100625.45
2022-12-06T00:47:05.729Z,100626.50
2022-12-06T00:49:36.913Z,100620.77
2022-12-06T00:52:08.535Z,100614.55
2022-12-06T00:54:40.041Z,100608.64
2022-12-06T00:57:11.617Z,100605.27
2022-12-06T00:59:43.130Z,100603.92
2022-12-06T01:02:14.420Z,100598.34
2022-12-06T01:04:45.651Z,100597.27
2022-12-06T01:07:17.371Z,100597.64
2022-12-06T01:09:49.096Z,100597.55
2022-12-06T01:12:20.481Z,100589.06
2022-12-06T01:14:51.625Z,100588.73
2022-12-06T01:17:22.708Z,100583.55
2022-12-06T01:19:54.135Z,100586.95
2022-12-06T01:22:25.272Z,100579.02
2022-12-06T01:24:56.543Z,100574.68
2022-12-06T01:27:27.907Z,100565.39
2022-12-06T01:29:59.311Z,100562.29
2022-12-06T01:32:31.217Z,100559.23
2022-12-06T01:35:02.855Z,100560.36
2022-12-06T01:37:34.215Z,100556.93
2022-12-06T01:40:05.936Z,100559.25
2022-12-06T01:42:37.211Z,100561.48
2022-12-06T01:45:12.856Z,100561.20
2022-12-06T01:47:45.876Z,100560.95
2022-12-06T01:50:21.272Z,100560.04
2022-12-06T01:52:54.704Z,100554.27
2022-12-06T01:55:30.073Z,100550.17
2022-12-06T01:58:01.919Z,100544.71
2022-12-06T02:00:33.078Z,100541.15
2022-12-06T02:03:09.316Z,100540.80
2022-12-06T02:05:41.671Z,100544.98
2022-12-06T02:08:14.638Z,100540.79
2022-12-06T02:10:46.121Z,100532.73
2022-12-06T02:13:17.694Z,100531.21
2022-12-06T02:15:55.890Z,100528.23
2022-12-06T02:18:35.723Z,100528.94
2022-12-06T02:21:17.508Z,100527.02
2022-12-06T02:24:22.649Z,100522.33
2022-12-06T02:27:03.352Z,100520.53
2022-12-06T02:30:09.013Z,100520.23
2022-12-06T02:32:54.518Z,100516.30
2022-12-06T02:35:34.562Z,100514.94
2022-12-06T02:38:13.349Z,100512.10
2022-12-06T02:40:51.233Z,100511.90
2022-12-06T02:43:27.134Z,100508.31
2022-12-06T02:46:02.326Z,100508.48
2022-12-06T02:48:35.513Z,100504.30
2022-12-06T02:51:10.322Z,100498.42
2022-12-06T02:53:47.133Z,100494.23
2022-12-06T02:56:20.411Z,100487.45
2022-12-06T02:58:51.494Z,100479.88
2022-12-06T03:01:28.463Z,100480.88
2022-12-06T03:04:12.701Z,100474.02
2022-12-06T03:07:10.707Z,100473.19
2022-12-06T03:09:54.022Z,100470.38
2022-12-06T03:12:38.791Z,100466.55
2022-12-06T03:15:21.096Z,100469.45
2022-12-06T03:17:55.839Z,100467.63
2022-12-06T03:20:33.098Z,100466.81
2022-12-06T03:23:08.269Z,100470.17
2022-12-06T03:25:40.679Z,100470.32
2022-12-06T03:28:15.059Z,100468.41
2022-12-06T03:30:50.541Z,100466.50
2022-12-06T03:33:25.687Z,100460.75
2022-12-06T03:35:58.895Z,100458.61
2022-12-06T03:38:35.308Z,100456.58
2022-12-06T03:41:09.030Z,100456.61
2022-12-06T03:43:40.518Z,100457.48
2022-12-06T03:46:16.752Z,100458.52
2022-12-06T03:48:51.124Z,100459.55
2022-12-06T03:51:27.207Z,100455.73
2022-12-06T03:54:01.237Z,100453.23
2022-12-06T03:56:36.895Z,100451.00
2022-12-06T03:59:09.348Z,100449.61
2022-12-06T04:01:40.978Z,100446.88
2022-12-06T04:04:14.269Z,100441.56
2022-12-06T04:06:45.500Z,100440.34
2022-12-06T04:09:34.254Z,100434.77
2022-12-06T04:12:26.347Z,100431.40
2022-12-06T04:14:57.553Z,100430.70
2022-12-06T04:17:46.546Z,100432.06
2022-12-06T04:20:17.932Z,100434.80
2022-12-06T04:23:07.449Z,100430.89
2022-12-06T04:25:39.446Z,100427.18
2022-12-06T04:28:28.227Z,100426.75
2022-12-06T04:31:21.808Z,100424.79
2022-12-06T04:34:11.358Z,100420.66
2022-12-06T04:37:00.946Z,100417.71
2022-12-06T04:39:32.456Z,100419.49
2022-12-06T04:42:22.057Z,100422.59
2022-12-06T04:44:53.209Z,100423.83
2022-12-06T04:47:24.860Z,100420.59
2022-12-06T04:49:55.817Z,100419.33
2022-12-06T04:52:30.200Z,100412.89
2022-12-06T04:55:06.393Z,100412.34
2022-12-06T04:57:37.745Z,100409.08
2022-12-06T05:00:11.377Z,100407.35
2022-12-06T05:02:42.797Z,100407.00
2022-12-06T05:05:13.935Z,100406.66
2022-12-06T05:07:45.163Z,100404.48
2022-12-06T05:10:16.371Z,100404.16
2022-12-06T05:12:47.793Z,100395.76
2022-12-06T05:15:19.143Z,100387.88
2022-12-06T05:17:51.166Z,100386.05
2022-12-06T05:20:22.259Z,100387.77
2022-12-06T05:22:53.847Z,100388.46
2022-12-06T05:25:25.262Z,100383.73
2022-12-06T05:27:56.814Z,100382.05
2022-12-06T05:30:27.820Z,100377.59
2022-12-06T05:32:58.858Z,100368.58
2022-12-06T05:35:29.876Z,100361.70
2022-12-06T05:38:05.489Z,100357.45
2022-12-06T05:40:43.586Z,100358.80
2022-12-06T05:43:19.567Z,100368.60
2022-12-06T05:45:55.259Z,100364.09
2022-12-06T05:48:26.393Z,100360.21
2022-12-06T05:50:57.413Z,100361.77
2022-12-06T05:53:30.789Z,100357.36
2022-12-06T05:56:11.577Z,100352.30
2022-12-06T05:58:43.148Z,100349.25
2022-12-06T06:01:18.556Z,100349.35
2022-12-06T06:03:48.221Z,100346.87
2022-12-06T06:06:19.373Z,100347.67
2022-12-06T06:08:50.645Z,100342.27
2022-12-06T06:11:21.681Z,100339.07
2022-12-06T06:13:54.826Z,100333.72
2022-12-06T06:16:26.046Z,100337.47
2022-12-06T06:18:57.245Z,100345.19
2022-12-06T06:21:28.446Z,100348.70
2022-12-06T06:24:00.489Z,100356.39
2022-12-06T06:26:31.695Z,100359.39
2022-12-06T06:29:02.675Z,100360.33
2022-12-06T06:31:33.883Z,100358.61
2022-12-06T06:34:04.938Z,100356.43
2022-12-06T06:36:38.898Z,100360.83
2022-12-06T06:39:12.142Z,100361.02
2022-12-06T06:41:43.213Z,100354.59
2022-12-06T06:44:14.515Z,100355.71
2022-12-06T06:46:45.474Z,100359.89
2022-12-06T06:49:17.788Z,100353.58
2022-12-06T06:51:49.124Z,100346.48
2022-12-06T06:54:20.219Z,100348.91
2022-12-06T06:56:51.358Z,100346.57
2022-12-06T06:59:22.790Z,100348.83
2022-12-06T07:01:54.102Z,100348.88
2022-12-06T07:04:25.194Z,100344.34
2022-12-06T07:06:56.308Z,100347.77
2022-12-06T07:09:27.520Z,100349.38
2022-12-06T07:11:58.650Z,100342.45
2022-12-06T07:14:30.063Z,100342.44
2022-12-06T07:17:01.350Z,100337.23
2022-12-06T07:19:32.561Z,100333.73
2022-12-06T07:22:03.621Z,100335.67
2022-12-06T07:24:39.870Z,100330.52
2022-12-06T07:27:12.907Z,100330.39
2022-12-06T07:29:43.913Z,100328.39
2022-12-06T07:32:15.300Z,100329.20
2022-12-06T07:34:46.343Z,100329.22
2022-12-06T07:37:19.180Z,100331.41
2022-12-06T07:39:50.214Z,100331.13
2022-12-06T07:42:39.122Z,100330.82
2022-12-06T07:45:12.421Z,100326.29
2022-12-06T07:47:46.386Z,100320.23
2022-12-06T07:50:20.091Z,100312.11
2022-12-06T07:52:52.134Z,100308.57
2022-12-06T07:55:23.404Z,100306.17
2022-12-06T07:57:54.463Z,100305.12
2022-12-06T08:00:26.940Z,100306.31
2022-12-06T08:02:58.480Z,100305.95
2022-12-06T08:05:29.547Z,100309.30
2022-12-06T08:08:00.673Z,100312.13
2022-12-06T08:10:31.796Z,100307.67
2022-12-06T08:13:03.619Z,100305.27
2022-12-06T08:15:34.740Z,100303.54
2022-12-06T08:18:05.886Z,100306.20
2022-12-06T08:20:37.123Z,100307.42
2022-12-06T08:23:08.564Z,100308.66
2022-12-06T08:25:39.747Z,100304.00
2022-12-06T08:28:10.864Z,100301.27
2022-12-06T08:30:44.226Z,100299.15
2022-12-06T08:33:15.163Z,100300.09
2022-12-06T08:35:46.210Z,100299.30
2022-12-06T08:38:17.253Z,100301.53
2022-12-06T08:40:48.251Z,100303.88
2022-12-06T08:43:19.547Z,100303.34
2022-12-06T08:45:54.113Z,100303.60
2022-12-06T08:48:25.251Z,100301.68
2022-12-06T08:50:57.191Z,100301.66
2022-12-06T08:53:28.255Z,100292.05
2022-12-06T08:56:02.770Z,100286.67
2022-12-06T08:58:34.226Z,100294.66
2022-12-06T09:01:13.863Z,100297.08
2022-12-06T09:03:45.040Z,100298.48
2022-12-06T09:06:21.435Z,100293.39
2022-12-06T09:08:52.627Z,100283.11
2022-12-06T09:11:23.769Z,100277.90
2022-12-06T09:13:55.012Z,100271.89
2022-12-06T09:16:26.686Z,100267.85
2022-12-06T09:18:58.880Z,100266.00
2022-12-06T09:21:32.999Z,100267.34
2022-12-06T09:24:03.965Z,100262.44
2022-12-06T09:26:35.462Z,100265.60
2022-12-06T09:29:06.704Z,100266.90
2022-12-06T09:31:40.385Z,100268.90
2022-12-06T09:34:13.106Z,100264.39
2022-12-06T09:36:47.752Z,100263.11
2022-12-06T09:39:22.568Z,100257.46
2022-12-06T09:42:23.560Z,100257.26
2022-12-06T09:45:13.381Z,100248.73
2022-12-06T09:47:59.625Z,100241.38
2022-12-06T09:50:40.544Z,100239.80
2022-12-06T09:53:22.962Z,100236.90
2022-12-06T09:56:07.406Z,100234.34
2022-12-06T09:58:53.103Z,100232.92
2022-12-06T10:01:33.598Z,100229.24
2022-12-06T10:04:27.516Z,100226.36
2022-12-06T10:07:09.012Z,100224.17
2022-12-06T10:09:54.967Z,100219.83
2022-12-06T10:12:39.816Z,100211.77
2022-12-06T10:15:24.992Z,100207.92
2022-12-06T10:18:07.271Z,100201.16
2022-12-06T10:20:46.674Z,100193.40
2022-12-06T10:23:34.661Z,100181.80
2022-12-06T10:26:14.465Z,100173.40
2022-12-06T10:28:49.488Z,100170.20
2022-12-06T10:31:32.098Z,100169.70
2022-12-06T10:34:08.990Z,100164.70
2022-12-06T10:36:52.410Z,100164.10
2022-12-06T10:39:29.382Z,100160.73
2022-12-06T10:42:07.840Z,100163.95
2022-12-06T10:44:43.629Z,100162.92
2022-12-06T10:47:20.439Z,100157.19
2022-12-06T10:49:59.290Z,100156.56
2022-12-06T10:52:39.688Z,100152.13
2022-12-06T10:55:22.603Z,100142.15
2022-12-06T10:58:00.604Z,100133.61
2022-12-06T11:00:37.140Z,100128.41
2022-12-06T11:03:19.430Z,100123.34
2022-12-06T11:05:55.448Z,100123.73
2022-12-06T11:08:34.277Z,100121.75
2022-12-06T11:11:11.653Z,100120.10
2022-12-06T11:13:45.261Z,100120.14
2022-12-06T11:16:20.011Z,100119.17
2022-12-06T11:18:52.572Z,100120.08
2022-12-06T11:21:29.393Z,100118.41
2022-12-06T11:24:04.827Z,100115.66
2022-12-06T11:26:39.209Z,100115.83
2022-12-06T11:29:14.535Z,100111.57
2022-12-06T11:31:47.756Z,100110.36
2022-12-06T11:34:23.927Z,100107.79
2022-12-06T11:37:00.037Z,100106.92
2022-12-06T11:39:33.076Z,100108.42
2022-12-06T11:42:08.310Z,100108.40
2022-12-06T11:45:01.086Z,100105.16
2022-12-06T11:47:32.233Z,100100.20
2022-12-06T11:50:08.636Z,100094.58
2022-12-06T11:52:50.064Z,100093.88
2022-12-06T11:55:23.576Z,100096.38
2022-12-06T11:57:58.609Z,100098.39
2022-12-06T12:00:31.281Z,100097.50
2022-12-06T12:03:02.624Z,100092.40
2022-12-06T12:05:36.982Z,100088.16
2022-12-06T12:08:17.697Z,100084.45
2022-12-06T12:10:59.517Z,100082.14
2022-12-06T12:13:48.393Z,100079.80
2022-12-06T12:16:25.066Z,100079.52
2022-12-06T12:19:00.444Z,100079.73
2022-12-06T12:21:40.986Z,100075.34
2022-12-06T12:25:17.314Z,100071.27
2022-12-06T12:27:48.374Z,100067.53
2022-12-06T12:30:30.151Z,100064.64
2022-12-06T12:33:27.217Z,100057.29
2022-12-06T12:36:15.588Z,100047.64
2022-12-06T12:38:55.341Z,100046.07
2022-12-06T12:41:32.149Z,100040.97
2022-12-06T12:44:36.037Z,100037.22
2022-12-06T12:47:00.698Z,100037.34
2022-12-06T12:49:35.169Z,100035.14
2022-12-06T12:52:28.673Z,100041.59
2022-12-06T12:55:15.524Z,100044.31
2022-12-06T12:57:48.859Z,100045.63
2022-12-06T13:00:23.272Z,100044.59
2022-12-06T13:02:58.427Z,100039.69
2022-12-06T13:05:34.219Z,100036.33
2022-12-06T13:08:14.110Z,100033.01
2022-12-06T13:10:48.329Z,100024.91
2022-12-06T13:13:23.213Z,100017.86
2022-12-06T13:15:56.971Z,100017.41
2022-12-06T13:18:33.257Z,100013.20
2022-12-06T13:21:15.576Z,100012.88
2022-12-06T13:23:49.083Z,100014.92
2022-12-06T13:26:26.593Z,100010.75
2022-12-06T13:29:01.247Z,100011.14
2022-12-06T13:31:36.546Z,100007.45
2022-12-06T13:34:26.346Z,100007.30
2022-12-06T13:36:58.564Z,100008.86
2022-12-06T13:39:39.717Z,100001.72
2022-12-06T13:42:25.229Z,99996.29
2022-12-06T13:44:59.895Z,99999.65
2022-12-06T13:47:50.786Z,99999.67
2022-12-06T13:50:53.378Z,99998.27
2022-12-06T13:53:26.497Z,99997.68
2022-12-06T13:56:03.161Z,99997.27
2022-12-06T13:58:52.511Z,99990.98
2022-12-06T14:01:43.281Z,99991.47
2022-12-06T14:04:41.539Z,99990.13
2022-12-06T14:09:46.507Z,99987.95
2022-12-06T14:12:23.223Z,99985.27
2022-12-06T14:15:01.342Z,99981.38
2022-12-06T14:18:02.212Z,99978.02
2022-12-06T14:20:32.905Z,99976.50
2022-12-06T14:23:03.927Z,99966.20
2022-12-06T14:25:34.917Z,99962.16
2022-12-06T14:28:08.320Z,99962.00
2022-12-06T14:30:39.543Z,99968.60
2022-12-06T14:33:23.363Z,99969.44
2022-12-06T14:35:56.823Z,99971.48
2022-12-06T14:38:30.933Z,99968.59
2022-12-06T14:41:31.087Z,99971.81
2022-12-06T14:44:02.512Z,99978.60
2022-12-06T14:46:33.678Z,99976.92
2022-12-06T14:49:22.363Z,99963.38
2022-12-06T14:51:53.872Z,99963.04
2022-12-06T14:54:36.673Z,99963.89
2022-12-06T14:57:19.294Z,99965.77
2022-12-06T15:00:25.959Z,99959.04
2022-12-06T15:05:43.791Z,99955.06
2022-12-06T15:08:38.122Z,99957.26
2022-12-06T15:11:43.721Z,99960.12
2022-12-06T15:14:17.231Z,99955.01
2022-12-06T15:16:58.204Z,99950.22
2022-12-06T15:19:30.528Z,99941.70
2022-12-06T15:22:02.128Z,99944.71
2022-12-06T15:24:33.788Z,99946.54
2022-12-06T15:27:04.723Z,99947.02
2022-12-06T15:29:35.516Z,99943.08
2022-12-06T15:32:07.326Z,99935.27
2022-12-06T15:34:38.075Z,99932.02
2022-12-06T15:37:37.513Z,99935.73
2022-12-06T15:40:02.348Z,99930.27
2022-12-06T15:42:33.444Z,99932.25
2022-12-06T15:45:04.765Z,99930.02
2022-12-06T15:47:36.045Z,99923.87
2022-12-06T15:50:08.645Z,99918.90
2022-12-06T15:52:39.402Z,99916.13
2022-12-06T15:55:19.822Z,99906.13
2022-12-06T15:57:50.603Z,99906.12
2022-12-06T16:00:22.638Z,99906.81
2022-12-06T16:02:54.641Z,99906.66
2022-12-06T16:05:25.600Z,99905.54
2022-12-06T16:07:56.590Z,99907.61
2022-12-06T16:10:48.783Z,99914.58
2022-12-06T16:13:24.886Z,99914.23
2022-12-06T16:15:56.150Z,99910.84
2022-12-06T16:18:27.224Z,99907.79
2022-12-06T16:20:58.182Z,99898.96
2022-12-06T16:24:12.544Z,99898.61
2022-12-06T16:26:41.893Z,99899.09
2022-12-06T16:29:15.668Z,99901.44
2022-12-06T16:31:46.908Z,99899.42
2022-12-06T16:34:18.791Z,99901.13
2022-12-06T16:37:01.572Z,99895.23
2022-12-06T16:39:34.685Z,99895.05
2022-12-06T16:42:06.568Z,99891.65
2022-12-06T16:44:51.284Z,99891.10
2022-12-06T16:49:52.257Z,99884.75
2022-12-06T16:52:23.141Z,99883.70
2022-12-06T16:54:54.018Z,99884.50
2022-12-06T16:57:24.892Z,99886.01
2022-12-06T16:59:55.803Z,99882.25
2022-12-06T17:02:34.249Z,99876.12
2022-12-06T17:05:08.374Z,99872.70
2022-12-06T17:07:41.133Z,99867.93
2022-12-06T17:10:14.224Z,99864.70
2022-12-06T17:12:46.091Z,99866.02
2022-12-06T17:15:19.516Z,99863.30
2022-12-06T17:17:50.964Z,99865.32
2022-12-06T17:20:22.242Z,99867.85
2022-12-06T17:22:53.139Z,99868.50
2022-12-06T17:25:23.904Z,99865.99
2022-12-06T17:27:54.736Z,99863.80
2022-12-06T17:30:25.922Z,99864.46
2022-12-06T17:32:56.933Z,99861.03
2022-12-06T17:35:35.594Z,99860.67
2022-12-06T17:38:06.435Z,99859.30
2022-12-06T17:40:37.302Z,99857.45
2022-12-06T17:43:09.996Z,99855.79
2022-12-06T17:45:40.944Z,99849.90
2022-12-06T17:48:11.864Z,99851.12
2022-12-06T17:50:45.875Z,99847.24
2022-12-06T17:53:16.809Z,99847.59
2022-12-06T17:55:47.936Z,99849.83
2022-12-06T17:58:18.810Z,99850.87
2022-12-06T18:00:50.108Z,99848.34
2022-12-06T18:03:21.239Z,99850.76
2022-12-06T18:05:52.188Z,99846.86
2022-12-06T18:08:23.008Z,99845.70
2022-12-06T18:11:01.376Z,99844.55
2022-12-06T18:13:33.279Z,99843.23
2022-12-06T18:16:14.090Z,99842.96
2022-12-06T18:18:46.180Z,99835.39
2022-12-06T18:21:19.759Z,99834.23
2022-12-06T18:24:19.637Z,99828.85
2022-12-06T18:26:43.245Z,99824.46
2022-12-06T18:29:18.214Z,99826.99
2022-12-06T18:31:49.647Z,99820.56
2022-12-06T18:34:23.645Z,99819.36
2022-12-06T18:36:54.603Z,99817.16
2022-12-06T18:39:26.057Z,99817.34
2022-12-06T18:41:57.096Z,99817.17
2022-12-06T18:44:28.188Z,99816.83
2022-12-06T18:46:59.602Z,99812.77
2022-12-06T18:49:30.435Z,99811.59
2022-12-06T18:52:01.339Z,99805.33
2022-12-06T18:54:32.463Z,99805.48
2022-12-06T18:57:03.326Z,99799.56
2022-12-06T18:59:37.606Z,99797.89
2022-12-06T19:02:10.718Z,99796.70
2022-12-06T19:04:42.022Z,99799.44
2022-12-06T19:07:13.490Z,99797.20
2022-12-06T19:09:44.323Z,99796.34
2022-12-06T19:12:15.255Z,99797.33
2022-12-06T19:14:46.316Z,99797.13
2022-12-06T19:17:17.296Z,99793.05
2022-12-06T19:19:48.156Z,99794.91
2022-12-06T19:22:19.636Z,99794.23
2022-12-06T19:24:50.810Z,99790.55
2022-12-06T19:27:21.918Z,99787.86
2022-12-06T19:29:52.766Z,99786.34
2022-12-06T19:32:23.907Z,99781.76
2022-12-06T19:34:56.208Z,99783.62
2022-12-06T19:37:27.386Z,99780.73
2022-12-06T19:39:58.586Z,99775.99
2022-12-06T19:42:47.428Z,99777.48
2022-12-06T19:45:18.540Z,99774.60
2022-12-06T19:47:49.413Z,99776.62
2022-12-06T19:50:20.239Z,99772.22
2022-12-06T19:52:51.223Z,99774.39
2022-12-06T19:55:22.337Z,99769.67
2022-12-06T19:57:53.534Z,99768.98
2022-12-06T20:00:24.997Z,99768.30
2022-12-06T20:02:56.078Z,99770.20
2022-12-06T20:05:27.562Z,99772.04
2022-12-06T20:07:58.966Z,99771.16
2022-12-06T20:10:30.046Z,99771.45
2022-12-06T20:13:01.482Z,99773.95
2022-12-06T20:15:34.182Z,99773.75
2022-12-06T20:18:05.355Z,99773.73
2022-12-06T20:20:36.650Z,99769.32
2022-12-06T20:23:10.535Z,99767.61
2022-12-06T20:25:42.727Z,99767.44
2022-12-06T20:28:13.947Z,99766.75
2022-12-06T20:30:45.076Z,99762.15
2022-12-06T20:33:16.256Z,99760.61
2022-12-06T20:35:47.348Z,99757.53
2022-12-06T20:38:18.465Z,99757.17
2022-12-06T20:40:49.388Z,99755.95
2022-12-06T20:43:20.541Z,99752.73
2022-12-06T20:45:51.844Z,99747.80
2022-12-06T20:48:23.120Z,99744.10
2022-12-06T20:50:54.039Z,99739.89
2022-12-06T20:53:25.074Z,99738.20
2022-12-06T20:55:55.966Z,99737.21
2022-12-06T20:58:27.036Z,99732.84
2022-12-06T21:00:58.364Z,99728.78
2022-12-06T21:03:29.905Z,99726.91
2022-12-06T21:06:05.428Z,99726.70
2022-12-06T21:08:36.594Z,99727.38
2022-12-06T21:11:24.763Z,99729.21
2022-12-06T21:13:57.515Z,99726.52
2022-12-06T21:16:30.230Z,99725.66
2022-12-06T21:19:03.763Z,99723.48
2022-12-06T21:21:37.087Z,99721.45
2022-12-06T21:24:12.017Z,99722.27
2022-12-06T21:26:43.102Z,99722.92
2022-12-06T21:29:18.211Z,99721.55
2022-12-06T21:31:49.494Z,99724.06
2022-12-06T21:34:20.473Z,99723.52
2022-12-06T21:36:51.575Z,99726.39
2022-12-06T21:39:22.665Z,99722.67
2022-12-06T21:41:54.058Z,99721.31
2022-12-06T21:44:25.678Z,99723.48
2022-12-06T21:46:56.846Z,99722.64
2022-12-06T21:49:27.899Z,99721.65
2022-12-06T21:52:04.591Z,99717.93
2022-12-06T21:54:39.090Z,99714.91
2022-12-06T21:57:10.168Z,99719.47
2022-12-06T21:59:41.104Z,99714.39
2022-12-06T22:02:13.665Z,99712.35
2022-12-06T22:04:44.916Z,99714.04
2022-12-06T22:07:16.149Z,99713.54
2022-12-06T22:09:47.187Z,99717.77
2022-12-06T22:12:18.422Z,99716.23
2022-12-06T22:14:49.947Z,99710.16
2022-12-06T22:17:20.934Z,99706.10
2022-12-06T22:19:52.091Z,99703.73
2022-12-06T22:22:23.750Z,99701.88
2022-12-06T22:24:54.610Z,99699.50
2022-12-06T22:27:25.509Z,99696.45
2022-12-06T22:29:56.309Z,99697.29
2022-12-06T22:32:27.188Z,99697.30
2022-12-06T22:34:58.081Z,99695.27
2022-12-06T22:37:28.837Z,99692.91
2022-12-06T22:40:00.169Z,99689.69
2022-12-06T22:42:33.825Z,99684.77
2022-12-06T22:45:04.779Z,99688.65
2022-12-06T22:47:35.613Z,99686.63
2022-12-06T22:50:09.027Z,99687.13
2022-12-06T22:52:40.357Z,99689.64
2022-12-06T22:55:11.933Z,99687.77
2022-12-06T22:57:42.805Z,99687.12
2022-12-06T23:00:15.131Z,99686.27
2022-12-06T23:02:45.976Z,99679.48
2022-12-06T23:05:17.399Z,99677.29
2022-12-06T23:07:48.406Z,99678.64
2022-12-06T23:10:22.378Z,99674.77
2022-12-06T23:12:53.432Z,99670.89
2022-12-06T23:15:24.425Z,99670.87
2022-12-06T23:17:55.487Z,99667.47
2022-12-06T23:20:26.519Z,99666.79
2022-12-06T23:22:57.671Z,99665.26
2022-12-06T23:25:28.791Z,99664.40
2022-12-06T23:28:00.001Z,99662.05
2022-12-06T23:30:33.839Z,99656.48
2022-12-06T23:33:05.023Z,99653.77
2022-12-06T23:35:36.325Z,99649.21
2022-12-06T23:38:07.887Z,99649.55
2022-12-06T23:40:38.912Z,99642.80
2022-12-06T23:43:10.484Z,99640.63
2022-12-06T23:45:41.577Z,99638.45
2022-12-06T23:48:12.784Z,99636.27
2022-12-06T23:50:43.779Z,99640.17
2022-12-06T23:53:15.026Z,99642.90
2022-12-06T23:55:46.212Z,99641.39
2022-12-06T23:58:17.568Z,99639.35
